createdAt,value
2022-08-20T00:00:08.330Z,99659.86
2022-08-20T00:01:11.568Z,99658.03
2022-08-20T00:02:14.578Z,99664.27
2022-08-20T00:03:20.410Z,99662.41
2022-08-20T00:04:24.490Z,99663.28
2022-08-20T00:05:30.538Z,99663.28
2022-08-20T00:06:34.013Z,99652.48
2022-08-20T00:07:36.373Z,99659.71
2022-08-20T00:08:39.761Z,99660.73
2022-08-20T00:09:43.096Z,99662.56
2022-08-20T00:10:49.014Z,99656.32
2022-08-20T00:11:49.991Z,99664.27
2022-08-20T00:12:52.276Z,99659.71
2022-08-20T00:13:57.166Z,99659.56
2022-08-20T00:15:00.989Z,99662.98
2022-08-20T00:16:04.886Z,99662.03
2022-08-20T00:17:07.661Z,99663.71
2022-08-20T00:18:10.341Z,99661.88
2022-08-20T00:19:14.637Z,99665.42
2022-08-20T00:20:19.710Z,99654.89
2022-08-20T00:21:23.270Z,99654.89
2022-08-20T00:22:27.261Z,99664.44
2022-08-20T00:23:30.430Z,99667.97
2022-08-20T00:24:32.985Z,99659.33
2022-08-20T00:25:35.782Z,99659.33
2022-08-20T00:26:38.552Z,99664.73
2022-08-20T00:27:43.067Z,99663.97
2022-08-20T00:28:45.876Z,99663.13
2022-08-20T00:29:48.092Z,99662.26
2022-08-20T00:30:50.660Z,99665.98
2022-08-20T00:31:52.776Z,99665.11
2022-08-20T00:34:10.901Z,99663.98
2022-08-20T00:35:15.980Z,99664.13
2022-08-20T00:36:20.178Z,99666.97
2022-08-20T00:37:23.091Z,99670.65
2022-08-20T00:38:26.657Z,99669.09
2022-08-20T00:39:30.958Z,99672.66
2022-08-20T00:40:37.109Z,99676.19
2022-08-20T00:41:39.430Z,99676.19
2022-08-20T00:42:48.278Z,99679.77
2022-08-20T00:44:03.820Z,99680.60
2022-08-20T00:45:08.800Z,99679.62
2022-08-20T00:47:31.952Z,99679.48
2022-08-20T00:48:36.156Z,99682.86
2022-08-20T00:49:38.392Z,99675.75
2022-08-20T00:50:42.074Z,99677.46
2022-08-20T00:51:50.804Z,99682.71
2022-08-20T00:52:53.369Z,99681.03
2022-08-20T00:53:59.980Z,99681.15
2022-08-20T00:55:03.215Z,99672.36
2022-08-20T00:56:06.150Z,99680.45
2022-08-20T00:57:27.409Z,99676.92
2022-08-20T00:58:32.211Z,99677.76
2022-08-20T00:59:35.487Z,99678.75
2022-08-20T01:00:40.180Z,99686.14
2022-08-20T01:01:55.107Z,99680.75
2022-08-20T01:02:47.786Z,99677.18
2022-08-20T01:03:50.275Z,99683.45
2022-08-20T01:04:53.553Z,99684.29
2022-08-20T01:05:56.430Z,99681.44
2022-08-20T01:07:01.251Z,99688.55
2022-08-20T01:08:04.227Z,99690.27
2022-08-20T01:09:08.147Z,99686.55
2022-08-20T01:10:13.987Z,99684.72
2022-08-20T01:11:18.188Z,99689.24
2022-08-20T01:12:20.774Z,99683.99
2022-08-20T01:13:23.050Z,99683.00
2022-08-20T01:14:26.587Z,99686.84
2022-08-20T01:15:31.022Z,99676.19
2022-08-20T01:16:34.684Z,99677.18
2022-08-20T01:17:36.846Z,99674.63
2022-08-20T01:18:40.033Z,99676.63
2022-08-20T01:21:00.430Z,99679.47
2022-08-20T01:22:03.007Z,99680.61
2022-08-20T01:23:09.036Z,99678.06
2022-08-20T01:25:46.345Z,99687.13
2022-08-20T01:26:49.096Z,99680.17
2022-08-20T01:27:53.194Z,99679.48
2022-08-20T01:29:01.592Z,99673.22
2022-08-20T01:30:06.915Z,99671.53
2022-08-20T01:32:26.607Z,99661.58
2022-08-20T01:33:29.246Z,99671.53
2022-08-20T01:34:31.660Z,99666.14
2022-08-20T01:35:37.514Z,99663.56
2022-08-20T01:37:57.996Z,99654.62
2022-08-20T01:39:00.662Z,99664.72
2022-08-20T01:40:04.567Z,99662.17
2022-08-20T01:41:34.136Z,99657.91
2022-08-20T01:42:38.145Z,99657.03
2022-08-20T01:43:45.630Z,99650.95
2022-08-20T01:44:50.581Z,99649.97
2022-08-20T01:45:53.040Z,99653.64
2022-08-20T01:46:57.573Z,99642.86
2022-08-20T01:48:00.296Z,99642.72
2022-08-20T01:50:23.814Z,99640.01
2022-08-20T01:51:28.844Z,99639.17
2022-08-20T01:52:44.351Z,99643.70
2022-08-20T01:53:48.899Z,99640.16
2022-08-20T01:54:52.054Z,99639.29
2022-08-20T01:55:54.515Z,99639.29
2022-08-20T01:57:00.767Z,99632.91
2022-08-20T01:58:03.294Z,99635.61
2022-08-20T01:59:05.652Z,99633.78
2022-08-20T02:00:14.613Z,99645.55
2022-08-20T02:02:32.916Z,99638.73
2022-08-20T02:03:40.737Z,99643.41
2022-08-20T02:04:43.105Z,99650.80
2022-08-20T02:05:46.449Z,99641.73
2022-08-20T02:06:56.271Z,99645.41
2022-08-20T02:08:00.783Z,99640.02
2022-08-20T02:09:03.558Z,99643.70
2022-08-20T02:10:08.983Z,99645.41
2022-08-20T02:11:11.566Z,99642.72
2022-08-20T02:12:14.344Z,99640.02
2022-08-20T02:13:16.798Z,99638.59
2022-08-20T02:14:20.013Z,99638.59
2022-08-20T02:15:30.771Z,99643.55
2022-08-20T02:16:31.078Z,99652.52
2022-08-20T02:17:33.685Z,99661.45
2022-08-20T02:18:37.165Z,99664.98
2022-08-20T02:19:45.242Z,99665.85
2022-08-20T02:20:49.402Z,99658.60
2022-08-20T02:21:54.154Z,99665.70
2022-08-20T02:22:57.659Z,99662.03
2022-08-20T02:24:00.252Z,99668.55
2022-08-20T02:25:03.607Z,99668.55
2022-08-20T02:26:07.261Z,99670.23
2022-08-20T02:27:09.781Z,99671.10
2022-08-20T02:28:13.255Z,99670.12
2022-08-20T02:29:16.128Z,99672.67
2022-08-20T02:30:28.226Z,99673.51
2022-08-20T02:31:34.829Z,99675.22
2022-08-20T02:32:35.105Z,99676.94
2022-08-20T02:33:37.469Z,99676.94
2022-08-20T02:34:41.587Z,99669.53
2022-08-20T02:35:45.471Z,99669.39
2022-08-20T02:36:48.870Z,99663.16
2022-08-20T02:37:51.299Z,99664.00
2022-08-20T02:38:53.720Z,99662.17
2022-08-20T02:39:56.970Z,99666.55
2022-08-20T02:41:01.174Z,99661.16
2022-08-20T02:42:05.294Z,99666.55
2022-08-20T02:43:08.797Z,99664.72
2022-08-20T02:44:11.232Z,99649.67
2022-08-20T02:45:18.984Z,99649.67
2022-08-20T02:46:20.693Z,99656.34
2022-08-20T02:47:23.076Z,99661.59
2022-08-20T02:48:26.304Z,99655.20
2022-08-20T02:49:29.071Z,99658.74
2022-08-20T02:50:33.930Z,99655.20
2022-08-20T02:51:36.459Z,99656.05
2022-08-20T02:52:38.837Z,99657.91
2022-08-20T02:53:43.506Z,99656.89
2022-08-20T02:54:46.119Z,99662.17
2022-08-20T02:55:48.592Z,99654.91
2022-08-20T02:56:50.873Z,99655.61
2022-08-20T02:57:58.909Z,99658.30
2022-08-20T02:59:01.427Z,99660.02
2022-08-20T03:00:07.452Z,99663.59
2022-08-20T03:01:13.049Z,99660.02
2022-08-20T03:02:15.754Z,99660.89
2022-08-20T03:03:18.249Z,99658.19
2022-08-20T03:04:21.809Z,99660.73
2022-08-20T03:05:27.481Z,99660.73
2022-08-20T03:06:31.876Z,99666.14
2022-08-20T03:09:14.705Z,99665.98
2022-08-20T03:10:18.158Z,99672.38
2022-08-20T03:11:20.925Z,99671.53
2022-08-20T03:12:23.466Z,99675.06
2022-08-20T03:13:26.680Z,99680.61
2022-08-20T03:14:29.348Z,99673.36
2022-08-20T03:15:32.633Z,99676.92
2022-08-20T03:16:35.072Z,99678.75
2022-08-20T03:17:38.380Z,99676.92
2022-08-20T03:18:44.329Z,99683.16
2022-08-20T03:19:47.833Z,99681.45
2022-08-20T03:20:52.123Z,99678.06
2022-08-20T03:21:55.101Z,99679.05
2022-08-20T03:22:58.385Z,99682.58
2022-08-20T03:24:02.892Z,99677.08
2022-08-20T03:25:07.822Z,99685.86
2022-08-20T03:26:11.921Z,99677.77
2022-08-20T03:27:15.272Z,99685.72
2022-08-20T03:28:19.019Z,99677.62
2022-08-20T03:29:22.690Z,99682.03
2022-08-20T03:30:26.447Z,99681.16
2022-08-20T03:31:28.766Z,99680.31
2022-08-20T03:32:31.044Z,99673.06
2022-08-20T03:33:34.040Z,99673.06
2022-08-20T03:34:36.553Z,99672.23
2022-08-20T03:35:38.846Z,99671.23
2022-08-20T03:36:43.018Z,99678.45
2022-08-20T03:37:45.759Z,99677.33
2022-08-20T03:38:51.010Z,99675.50
2022-08-20T03:39:53.318Z,99676.34
2022-08-20T03:40:56.602Z,99673.50
2022-08-20T03:41:59.643Z,99680.60
2022-08-20T03:43:02.149Z,99676.05
2022-08-20T03:44:04.879Z,99680.45
2022-08-20T03:45:09.081Z,99675.90
2022-08-20T03:46:23.111Z,99674.91
2022-08-20T03:47:16.156Z,99662.27
2022-08-20T03:48:19.555Z,99662.27
2022-08-20T03:49:22.420Z,99674.91
2022-08-20T03:50:28.531Z,99667.66
2022-08-20T03:51:31.576Z,99674.07
2022-08-20T03:52:36.714Z,99667.80
2022-08-20T03:53:39.162Z,99670.50
2022-08-20T03:54:42.110Z,99666.97
2022-08-20T03:55:45.804Z,99667.95
2022-08-20T03:56:51.241Z,99661.72
2022-08-20T03:57:55.405Z,99662.56
2022-08-20T03:58:58.574Z,99660.00
2022-08-20T04:00:03.859Z,99658.30
2022-08-20T04:01:12.628Z,99657.45
2022-08-20T04:02:12.454Z,99656.47
2022-08-20T04:03:15.340Z,99656.47
2022-08-20T04:04:17.669Z,99656.47
2022-08-20T04:05:20.221Z,99663.58
2022-08-20T04:06:23.575Z,99656.47
2022-08-20T04:07:26.053Z,99653.62
2022-08-20T04:08:28.593Z,99657.16
2022-08-20T04:09:30.952Z,99659.86
2022-08-20T04:10:35.425Z,99661.57
2022-08-20T04:11:51.346Z,99665.11
2022-08-20T04:12:54.426Z,99661.42
2022-08-20T04:13:57.802Z,99661.27
2022-08-20T04:15:00.182Z,99660.44
2022-08-20T04:16:05.341Z,99670.24
2022-08-20T04:17:10.427Z,99664.84
2022-08-20T04:18:13.236Z,99671.92
2022-08-20T04:19:17.091Z,99663.83
2022-08-20T04:20:22.425Z,99661.01
2022-08-20T04:21:25.297Z,99664.58
2022-08-20T04:22:29.645Z,99665.42
2022-08-20T04:23:32.689Z,99662.72
2022-08-20T04:24:35.124Z,99667.28
2022-08-20T04:25:37.516Z,99658.20
2022-08-20T04:26:42.129Z,99661.88
2022-08-20T04:27:44.493Z,99654.77
2022-08-20T04:28:47.461Z,99656.48
2022-08-20T04:29:49.818Z,99661.01
2022-08-20T04:30:53.412Z,99658.31
2022-08-20T04:31:55.702Z,99662.87
2022-08-20T04:32:58.640Z,99659.19
2022-08-20T04:34:02.139Z,99663.59
2022-08-20T04:35:05.572Z,99656.34
2022-08-20T04:36:10.346Z,99663.45
2022-08-20T04:37:16.967Z,99658.89
2022-08-20T04:38:18.513Z,99655.34
2022-08-20T04:39:20.942Z,99660.75
2022-08-20T04:40:24.013Z,99657.17
2022-08-20T04:41:27.486Z,99653.49
2022-08-20T04:42:29.945Z,99656.05
2022-08-20T04:43:34.924Z,99657.91
2022-08-20T04:44:37.426Z,99659.73
2022-08-20T04:45:39.718Z,99663.45
2022-08-20T04:46:43.293Z,99662.58
2022-08-20T04:47:46.573Z,99658.20
2022-08-20T04:48:50.250Z,99652.08
2022-08-20T04:49:53.028Z,99663.83
2022-08-20T04:50:59.102Z,99658.72
2022-08-20T04:52:03.436Z,99661.86
2022-08-20T04:53:09.083Z,99655.49
2022-08-20T04:54:11.582Z,99651.64
2022-08-20T04:55:14.165Z,99655.61
2022-08-20T04:56:18.373Z,99660.03
2022-08-20T04:57:20.801Z,99661.45
2022-08-20T04:59:38.524Z,99654.34
2022-08-20T05:00:48.192Z,99659.88
2022-08-20T05:01:50.551Z,99661.73
2022-08-20T05:02:53.020Z,99654.05
2022-08-20T05:03:55.703Z,99651.09
2022-08-20T05:04:59.087Z,99652.77
2022-08-20T05:06:01.745Z,99648.11
2022-08-20T05:07:04.410Z,99650.08
2022-08-20T05:08:19.954Z,99650.66
2022-08-20T05:09:11.798Z,99644.58
2022-08-20T05:10:16.909Z,99640.86
2022-08-20T05:11:33.716Z,99644.28
2022-08-20T05:12:23.700Z,99635.61
2022-08-20T05:13:27.520Z,99635.61
2022-08-20T05:14:29.936Z,99640.71
2022-08-20T05:15:33.351Z,99641.44
2022-08-20T05:16:37.453Z,99638.59
2022-08-20T05:17:40.490Z,99643.98
2022-08-20T05:18:42.996Z,99642.13
2022-08-20T05:19:45.255Z,99642.13
2022-08-20T05:20:48.178Z,99637.61
2022-08-20T05:21:51.033Z,99633.34
2022-08-20T05:22:54.116Z,99629.80
2022-08-20T05:23:58.096Z,99622.84
2022-08-20T05:25:00.413Z,99628.94
2022-08-20T05:26:04.338Z,99627.95
2022-08-20T05:27:07.725Z,99627.52
2022-08-20T05:28:16.163Z,99635.06
2022-08-20T05:29:18.482Z,99636.33
2022-08-20T05:30:21.884Z,99632.03
2022-08-20T05:32:44.505Z,99619.28
2022-08-20T05:33:43.910Z,99619.53
2022-08-20T05:34:47.129Z,99612.72
2022-08-20T05:35:50.260Z,99608.31
2022-08-20T05:36:52.946Z,99618.81
2022-08-20T05:37:57.416Z,99614.15
2022-08-20T05:39:00.692Z,99621.95
2022-08-20T05:41:29.161Z,99620.42
2022-08-20T05:42:27.894Z,99623.95
2022-08-20T05:43:30.388Z,99623.08
2022-08-20T05:44:34.250Z,99619.69
2022-08-20T05:45:39.394Z,99627.63
2022-08-20T05:46:44.109Z,99632.88
2022-08-20T05:47:47.489Z,99631.64
2022-08-20T05:48:51.892Z,99623.26
2022-08-20T05:49:54.354Z,99623.84
2022-08-20T05:50:56.931Z,99635.32
2022-08-20T05:51:59.273Z,99621.58
2022-08-20T05:53:02.178Z,99632.91
2022-08-20T05:54:05.697Z,99632.63
2022-08-20T05:55:09.557Z,99630.66
2022-08-20T05:56:13.342Z,99626.83
2022-08-20T05:57:18.584Z,99622.13
2022-08-20T05:58:25.856Z,99618.44
2022-08-20T05:59:28.317Z,99628.94
2022-08-20T06:00:31.197Z,99625.25
2022-08-20T06:01:35.039Z,99623.25
2022-08-20T06:02:37.558Z,99630.20
2022-08-20T06:03:39.826Z,99626.38
2022-08-20T06:04:42.973Z,99628.92
2022-08-20T06:05:46.207Z,99629.91
2022-08-20T06:06:48.949Z,99635.45
2022-08-20T06:07:54.825Z,99627.22
2022-08-20T06:08:56.949Z,99623.53
2022-08-20T06:10:00.100Z,99627.80
2022-08-20T06:11:04.168Z,99628.52
2022-08-20T06:12:07.418Z,99624.80
2022-08-20T06:13:10.472Z,99628.37
2022-08-20T06:14:14.908Z,99629.90
2022-08-20T06:15:18.565Z,99626.22
2022-08-20T06:16:21.272Z,99633.17
2022-08-20T06:17:24.903Z,99625.92
2022-08-20T06:18:28.921Z,99632.04
2022-08-20T06:19:32.495Z,99626.64
2022-08-20T06:20:36.866Z,99627.33
2022-08-20T06:21:40.281Z,99623.65
2022-08-20T06:22:44.592Z,99623.50
2022-08-20T06:23:57.216Z,99631.45
2022-08-20T06:24:52.861Z,99634.90
2022-08-20T06:25:55.216Z,99641.13
2022-08-20T06:26:59.082Z,99637.45
2022-08-20T06:28:03.528Z,99638.29
2022-08-20T06:29:06.329Z,99645.39
2022-08-20T06:30:12.103Z,99642.70
2022-08-20T06:31:14.515Z,99639.01
2022-08-20T06:32:18.200Z,99641.71
2022-08-20T06:33:21.896Z,99641.71
2022-08-20T06:34:24.475Z,99642.55
2022-08-20T06:35:26.716Z,99638.86
2022-08-20T06:36:30.650Z,99643.42
2022-08-20T06:37:34.413Z,99634.30
2022-08-20T06:38:38.636Z,99634.30
2022-08-20T06:39:42.027Z,99648.67
2022-08-20T06:40:45.498Z,99644.95
2022-08-20T06:41:47.979Z,99634.16
2022-08-20T06:42:51.414Z,99643.13
2022-08-20T06:43:53.960Z,99640.27
2022-08-20T06:44:59.574Z,99648.38
2022-08-20T06:46:03.160Z,99642.97
2022-08-20T06:47:06.326Z,99638.41
2022-08-20T06:48:11.414Z,99643.66
2022-08-20T06:49:15.862Z,99649.93
2022-08-20T06:50:23.186Z,99642.67
2022-08-20T06:51:26.870Z,99651.61
2022-08-20T06:52:51.695Z,99645.38
2022-08-20T06:53:34.333Z,99647.09
2022-08-20T06:54:37.000Z,99648.80
2022-08-20T06:55:40.640Z,99643.39
2022-08-20T06:56:45.456Z,99647.77
2022-08-20T06:59:09.047Z,99642.20
2022-08-20T07:00:15.269Z,99641.39
2022-08-20T07:01:18.215Z,99643.25
2022-08-20T07:02:20.762Z,99643.25
2022-08-20T07:03:26.095Z,99638.69
2022-08-20T07:04:28.449Z,99636.83
2022-08-20T07:05:33.032Z,99633.14
2022-08-20T07:06:36.759Z,99635.16
2022-08-20T07:07:39.093Z,99635.30
2022-08-20T07:08:41.903Z,99636.59
2022-08-20T07:09:44.847Z,99635.86
2022-08-20T07:10:47.717Z,99637.72
2022-08-20T07:11:51.337Z,99636.02
2022-08-20T07:12:54.723Z,99643.42
2022-08-20T07:13:58.335Z,99641.86
2022-08-20T07:15:03.857Z,99637.45
2022-08-20T07:16:06.599Z,99645.39
2022-08-20T07:17:11.383Z,99637.30
2022-08-20T07:18:15.749Z,99634.75
2022-08-20T07:19:20.162Z,99639.31
2022-08-20T07:20:23.138Z,99640.30
2022-08-20T07:21:26.018Z,99637.75
2022-08-20T07:22:28.984Z,99644.82
2022-08-20T07:23:31.260Z,99646.80
2022-08-20T07:24:35.725Z,99644.25
2022-08-20T07:25:40.212Z,99647.78
2022-08-20T07:26:46.010Z,99640.56
2022-08-20T07:27:49.354Z,99649.38
2022-08-20T07:28:51.917Z,99643.37
2022-08-20T07:29:55.664Z,99644.82
2022-08-20T07:31:00.170Z,99652.08
2022-08-20T07:32:07.139Z,99643.98
2022-08-20T07:33:11.363Z,99644.82
2022-08-20T07:34:13.716Z,99636.84
2022-08-20T07:35:16.888Z,99653.94
2022-08-20T07:36:20.966Z,99645.84
2022-08-20T07:37:24.167Z,99647.63
2022-08-20T07:38:27.163Z,99641.40
2022-08-20T07:39:30.879Z,99639.00
2022-08-20T07:40:35.823Z,99640.83
2022-08-20T07:41:38.302Z,99647.93
2022-08-20T07:42:41.723Z,99636.98
2022-08-20T07:43:44.157Z,99637.75
2022-08-20T07:44:46.542Z,99638.59
2022-08-20T07:45:52.799Z,99638.44
2022-08-20T07:46:59.501Z,99639.16
2022-08-20T07:48:10.591Z,99630.91
2022-08-20T07:49:13.196Z,99624.64
2022-08-20T07:50:18.285Z,99629.05
2022-08-20T07:51:21.200Z,99627.34
2022-08-20T07:52:24.177Z,99626.50
2022-08-20T07:53:30.241Z,99631.75
2022-08-20T07:54:32.067Z,99628.91
2022-08-20T07:55:34.421Z,99627.08
2022-08-20T07:56:37.615Z,99633.47
2022-08-20T07:58:54.134Z,99616.55
2022-08-20T07:59:57.301Z,99627.92
2022-08-20T08:01:00.727Z,99623.23
2022-08-20T08:02:04.117Z,99627.22
2022-08-20T08:03:06.735Z,99624.66
2022-08-20T08:04:10.630Z,99622.98
2022-08-20T08:05:13.613Z,99627.51
2022-08-20T08:06:29.518Z,99627.11
2022-08-20T08:07:23.576Z,99629.38
2022-08-20T08:08:26.737Z,99623.55
2022-08-20T08:09:29.345Z,99630.80
2022-08-20T08:10:31.692Z,99627.81
2022-08-20T08:11:35.669Z,99629.38
2022-08-20T08:12:41.205Z,99621.14
2022-08-20T08:13:43.513Z,99627.52
2022-08-20T08:14:45.832Z,99621.44
2022-08-20T08:15:48.414Z,99619.14
2022-08-20T08:16:54.485Z,99622.42
2022-08-20T08:18:10.403Z,99623.55
2022-08-20T08:19:13.296Z,99613.06
2022-08-20T08:20:15.988Z,99613.34
2022-08-20T08:21:18.479Z,99617.31
2022-08-20T08:22:20.943Z,99616.01
2022-08-20T08:23:31.667Z,99618.12
2022-08-20T08:24:28.681Z,99621.66
2022-08-20T08:25:31.256Z,99620.67
2022-08-20T08:26:36.553Z,99607.92
2022-08-20T08:27:39.759Z,99613.89
2022-08-20T08:28:42.296Z,99606.39
2022-08-20T08:29:47.216Z,99610.07
2022-08-20T08:30:50.340Z,99609.38
2022-08-20T08:31:53.728Z,99607.66
2022-08-20T08:32:57.969Z,99603.52
2022-08-20T08:34:00.498Z,99604.79
2022-08-20T08:35:06.812Z,99621.50
2022-08-20T08:36:16.353Z,99619.52
2022-08-20T08:37:18.901Z,99626.75
2022-08-20T08:38:22.858Z,99629.98
2022-08-20T08:39:25.367Z,99614.10
2022-08-20T08:40:31.157Z,99608.86
2022-08-20T08:41:41.409Z,99608.27
2022-08-20T08:42:46.551Z,99606.70
2022-08-20T08:43:52.077Z,99611.24
2022-08-20T08:44:55.147Z,99617.22
2022-08-20T08:46:04.411Z,99617.49
2022-08-20T08:47:10.508Z,99615.25
2022-08-20T08:48:18.568Z,99615.55
2022-08-20T08:49:21.998Z,99620.51
2022-08-20T08:51:51.942Z,99610.88
2022-08-20T08:52:56.432Z,99616.11
2022-08-20T08:54:03.457Z,99620.66
2022-08-20T08:55:06.205Z,99610.03
2022-08-20T08:56:10.866Z,99613.70
2022-08-20T08:57:14.169Z,99613.70
2022-08-20T08:58:17.811Z,99613.01
2022-08-20T08:59:21.090Z,99609.30
2022-08-20T09:00:25.756Z,99609.30
2022-08-20T09:01:54.369Z,99611.16
2022-08-20T09:02:32.786Z,99616.69
2022-08-20T09:03:37.137Z,99612.42
2022-08-20T09:04:40.001Z,99614.42
2022-08-20T09:06:58.393Z,99610.72
2022-08-20T09:08:02.929Z,99617.67
2022-08-20T09:09:06.718Z,99610.17
2022-08-20T09:10:11.075Z,99613.42
2022-08-20T09:11:15.304Z,99620.37
2022-08-20T09:12:21.496Z,99618.27
2022-08-20T09:13:24.314Z,99614.59
2022-08-20T09:14:26.775Z,99615.13
2022-08-20T09:15:29.162Z,99620.16
2022-08-20T09:16:33.128Z,99616.30
2022-08-20T09:17:36.849Z,99619.58
2022-08-20T09:18:39.112Z,99620.42
2022-08-20T09:19:41.763Z,99624.97
2022-08-20T09:20:45.501Z,99625.95
2022-08-20T09:21:48.642Z,99632.22
2022-08-20T09:22:51.515Z,99628.80
2022-08-20T09:23:55.099Z,99626.10
2022-08-20T09:26:29.288Z,99625.12
2022-08-20T09:27:31.644Z,99624.39
2022-08-20T09:28:35.083Z,99622.23
2022-08-20T09:29:38.672Z,99628.91
2022-08-20T09:30:43.037Z,99624.92
2022-08-20T09:31:47.101Z,99629.73
2022-08-20T09:32:51.410Z,99622.77
2022-08-20T09:33:54.358Z,99632.71
2022-08-20T09:34:56.778Z,99628.05
2022-08-20T09:36:30.720Z,99635.12
2022-08-20T09:37:17.713Z,99627.18
2022-08-20T09:38:20.897Z,99634.56
2022-08-20T09:39:23.711Z,99629.32
2022-08-20T09:40:26.796Z,99631.28
2022-08-20T09:41:31.037Z,99630.59
2022-08-20T09:42:40.728Z,99629.72
2022-08-20T09:43:40.804Z,99625.20
2022-08-20T09:44:43.309Z,99627.75
2022-08-20T09:45:45.479Z,99623.20
2022-08-20T09:47:09.610Z,99631.14
2022-08-20T09:48:11.901Z,99629.32
2022-08-20T09:49:14.402Z,99627.75
2022-08-20T09:50:17.448Z,99626.87
2022-08-20T09:51:19.760Z,99623.62
2022-08-20T09:52:27.726Z,99627.30
2022-08-20T09:53:30.524Z,99625.73
2022-08-20T09:54:33.466Z,99625.04
2022-08-20T09:55:42.670Z,99636.94
2022-08-20T09:56:45.832Z,99622.73
2022-08-20T09:57:49.599Z,99618.51
2022-08-20T09:58:53.466Z,99628.41
2022-08-20T10:00:00.534Z,99630.13
2022-08-20T10:01:14.027Z,99626.30
2022-08-20T10:02:13.589Z,99625.18
2022-08-20T10:03:16.445Z,99625.18
2022-08-20T10:04:18.921Z,99628.02
2022-08-20T10:05:21.201Z,99620.05
2022-08-20T10:06:25.658Z,99618.62
2022-08-20T10:07:28.472Z,99613.23
2022-08-20T10:08:31.060Z,99621.20
2022-08-20T10:09:34.684Z,99624.31
2022-08-20T10:10:38.834Z,99624.75
2022-08-20T10:11:41.381Z,99622.50
2022-08-20T10:12:43.743Z,99629.32
2022-08-20T10:13:46.125Z,99622.66
2022-08-20T10:14:48.515Z,99625.91
2022-08-20T10:15:51.466Z,99621.25
2022-08-20T10:16:56.666Z,99631.74
2022-08-20T10:18:03.063Z,99625.22
2022-08-20T10:19:06.471Z,99621.52
2022-08-20T10:20:11.302Z,99621.40
2022-08-20T10:21:14.749Z,99625.77
2022-08-20T10:22:17.701Z,99630.06
2022-08-20T10:23:20.129Z,99634.33
2022-08-20T10:24:22.928Z,99626.97
2022-08-20T10:25:27.444Z,99630.36
2022-08-20T10:26:31.671Z,99622.27
2022-08-20T10:27:36.591Z,99625.41
2022-08-20T10:28:39.263Z,99625.63
2022-08-20T10:29:46.631Z,99629.23
2022-08-20T10:30:46.836Z,99619.14
2022-08-20T10:31:50.181Z,99625.95
2022-08-20T10:32:52.807Z,99630.36
2022-08-20T10:33:55.086Z,99626.68
2022-08-20T10:34:57.353Z,99631.78
2022-08-20T10:36:10.027Z,99627.09
2022-08-20T10:37:16.898Z,99623.41
2022-08-20T10:38:19.779Z,99621.58
2022-08-20T10:39:22.388Z,99622.56
2022-08-20T10:40:26.624Z,99625.41
2022-08-20T10:41:29.138Z,99623.98
2022-08-20T10:42:31.478Z,99626.97
2022-08-20T10:43:33.939Z,99624.09
2022-08-20T10:44:38.710Z,99623.66
2022-08-20T10:45:42.245Z,99623.94
2022-08-20T10:46:44.858Z,99629.33
2022-08-20T10:47:47.144Z,99621.50
2022-08-20T10:48:50.684Z,99618.11
2022-08-20T10:49:54.048Z,99627.91
2022-08-20T10:50:56.845Z,99631.02
2022-08-20T10:51:59.729Z,99626.06
2022-08-20T10:53:02.199Z,99632.88
2022-08-20T10:54:08.214Z,99621.00
2022-08-20T10:55:29.253Z,99622.56
2022-08-20T10:56:32.282Z,99629.52
2022-08-20T10:57:35.046Z,99615.89
2022-08-20T10:58:39.475Z,99620.16
2022-08-20T10:59:43.312Z,99626.39
2022-08-20T11:00:46.515Z,99617.47
2022-08-20T11:01:50.279Z,99616.45
2022-08-20T11:02:52.909Z,99620.86
2022-08-20T11:03:56.120Z,99621.58
2022-08-20T11:04:59.740Z,99616.05
2022-08-20T11:06:02.753Z,99615.89
2022-08-20T11:07:17.717Z,99616.45
2022-08-20T11:08:33.642Z,99618.88
2022-08-20T11:09:24.340Z,99615.17
2022-08-20T11:10:28.952Z,99607.80
2022-08-20T11:11:31.342Z,99617.60
2022-08-20T11:12:34.182Z,99612.06
2022-08-20T11:13:36.609Z,99610.50
2022-08-20T11:14:40.113Z,99606.09
2022-08-20T11:15:42.814Z,99606.81
2022-08-20T11:16:46.568Z,99605.80
2022-08-20T11:17:50.181Z,99600.25
2022-08-20T11:18:53.430Z,99604.66
2022-08-20T11:19:56.308Z,99599.13
2022-08-20T11:20:58.868Z,99597.30
2022-08-20T11:22:01.426Z,99599.99
2022-08-20T11:23:03.795Z,99603.38
2022-08-20T11:24:07.075Z,99598.97
2022-08-20T11:25:10.157Z,99602.55
2022-08-20T11:26:17.167Z,99608.78
2022-08-20T11:27:24.116Z,99605.93
2022-08-20T11:28:31.839Z,99599.55
2022-08-20T11:29:34.016Z,99604.80
2022-08-20T11:30:36.091Z,99603.09
2022-08-20T11:31:39.637Z,99597.69
2022-08-20T11:32:42.073Z,99599.41
2022-08-20T11:33:45.576Z,99594.01
2022-08-20T11:34:48.717Z,99595.72
2022-08-20T11:35:51.149Z,99601.95
2022-08-20T11:36:53.627Z,99601.80
2022-08-20T11:37:57.727Z,99605.37
2022-08-20T11:39:00.273Z,99600.81
2022-08-20T11:40:03.785Z,99604.36
2022-08-20T11:41:06.431Z,99599.98
2022-08-20T11:42:08.943Z,99600.97
2022-08-20T11:43:15.243Z,99601.95
2022-08-20T11:44:21.260Z,99602.94
2022-08-20T11:45:21.593Z,99603.09
2022-08-20T11:46:28.562Z,99601.11
2022-08-20T11:47:31.192Z,99606.21
2022-08-20T11:48:34.800Z,99607.92
2022-08-20T11:49:37.348Z,99604.36
2022-08-20T11:50:40.949Z,99606.06
2022-08-20T11:51:49.468Z,99605.91
2022-08-20T11:52:48.330Z,99597.67
2022-08-20T11:53:51.737Z,99598.55
2022-08-20T11:54:55.553Z,99593.98
2022-08-20T11:55:57.876Z,99601.09
2022-08-20T11:57:02.179Z,99592.43
2022-08-20T11:58:05.261Z,99596.85
2022-08-20T11:59:07.643Z,99589.77
2022-08-20T12:00:13.536Z,99593.05
2022-08-20T12:01:16.239Z,99601.28
2022-08-20T12:02:20.283Z,99600.27
2022-08-20T12:03:22.834Z,99595.45
2022-08-20T12:04:25.371Z,99598.00
2022-08-20T12:05:30.484Z,99598.98
2022-08-20T12:06:34.612Z,99595.59
2022-08-20T12:07:37.472Z,99594.03
2022-08-20T12:08:40.042Z,99599.14
2022-08-20T12:09:50.545Z,99603.11
2022-08-20T12:10:48.673Z,99593.45
2022-08-20T12:11:51.021Z,99598.59
2022-08-20T12:12:54.719Z,99601.66
2022-08-20T12:13:57.191Z,99598.13
2022-08-20T12:14:59.586Z,99597.14
2022-08-20T12:16:03.162Z,99598.97
2022-08-20T12:17:14.597Z,99596.56
2022-08-20T12:18:17.679Z,99591.02
2022-08-20T12:19:20.007Z,99594.30
2022-08-20T12:20:23.341Z,99587.81
2022-08-20T12:21:28.661Z,99593.20
2022-08-20T12:22:30.205Z,99593.28
2022-08-20T12:23:32.540Z,99591.86
2022-08-20T12:24:35.310Z,99600.09
2022-08-20T12:25:38.208Z,99597.14
2022-08-20T12:26:41.494Z,99604.06
2022-08-20T12:27:58.373Z,99604.53
2022-08-20T12:29:01.470Z,99607.81
2022-08-20T12:30:10.906Z,99603.84
2022-08-20T12:31:14.290Z,99597.31
2022-08-20T12:32:17.371Z,99596.44
2022-08-20T12:33:19.633Z,99600.85
2022-08-20T12:34:22.076Z,99599.72
2022-08-20T12:35:26.083Z,99601.28
2022-08-20T12:36:29.561Z,99599.58
2022-08-20T12:37:32.046Z,99597.17
2022-08-20T12:38:34.556Z,99589.34
2022-08-20T12:39:39.261Z,99595.75
2022-08-20T12:40:42.765Z,99593.89
2022-08-20T12:41:45.999Z,99596.15
2022-08-20T12:42:48.912Z,99594.03
2022-08-20T12:43:53.120Z,99593.05
2022-08-20T12:44:56.285Z,99595.74
2022-08-20T12:45:59.512Z,99597.31
2022-08-20T12:47:13.882Z,99599.71
2022-08-20T12:48:17.421Z,99602.95
2022-08-20T12:49:20.906Z,99592.89
2022-08-20T12:50:28.501Z,99590.05
2022-08-20T12:51:29.715Z,99592.59
2022-08-20T12:52:33.573Z,99597.00
2022-08-20T12:53:35.889Z,99591.45